sensor_id;sensor_type;location;lat;lon;timestamp;temperature;humidity
975;DHT22;6115;49.296;10.602;2023-03-03T00:02:53;0.60;67.00
975;DHT22;6115;49.296;10.602;2023-03-03T00:07:53;0.50;66.70
975;DHT22;6115;49.296;10.602;2023-03-03T00:12:54;0.50;67.00
975;DHT22;6115;49.296;10.602;2023-03-03T00:17:55;0.50;67.20
975;DHT22;6115;49.296;10.602;2023-03-03T00:23:03;0.50;67.50
975;DHT22;6115;49.296;10.602;2023-03-03T00:28:17;0.40;67.50
975;DHT22;6115;49.296;10.602;2023-03-03T00:33:30;0.30;67.50
975;DHT22;6115;49.296;10.602;2023-03-03T00:38:34;0.30;67.70
975;DHT22;6115;49.296;10.602;2023-03-03T00:43:35;0.30;67.60
975;DHT22;6115;49.296;10.602;2023-03-03T00:53:37;0.10;67.80
975;DHT22;6115;49.296;10.602;2023-03-03T00:58:37;0.10;67.80
975;DHT22;6115;49.296;10.602;2023-03-03T01:03:38;0.10;67.70
975;DHT22;6115;49.296;10.602;2023-03-03T01:08:39;0.00;67.70
975;DHT22;6115;49.296;10.602;2023-03-03T01:13:41;-0.10;68.00
975;DHT22;6115;49.296;10.602;2023-03-03T01:18:43;-0.10;68.60
975;DHT22;6115;49.296;10.602;2023-03-03T01:23:44;-0.10;69.00
975;DHT22;6115;49.296;10.602;2023-03-03T01:28:44;-0.10;69.10
975;DHT22;6115;49.296;10.602;2023-03-03T01:33:45;-0.10;69.50
975;DHT22;6115;49.296;10.602;2023-03-03T01:38:45;-0.10;70.00
975;DHT22;6115;49.296;10.602;2023-03-03T01:43:48;-0.10;69.50
975;DHT22;6115;49.296;10.602;2023-03-03T01:48:53;-0.20;69.10
975;DHT22;6115;49.296;10.602;2023-03-03T01:53:58;-0.20;69.00
975;DHT22;6115;49.296;10.602;2023-03-03T01:59:03;-0.20;68.80
975;DHT22;6115;49.296;10.602;2023-03-03T02:04:04;-0.20;68.80
975;DHT22;6115;49.296;10.602;2023-03-03T02:09:28;-0.20;69.10
975;DHT22;6115;49.296;10.602;2023-03-03T02:14:30;-0.30;68.90
975;DHT22;6115;49.296;10.602;2023-03-03T02:20:12;-0.30;69.00
975;DHT22;6115;49.296;10.602;2023-03-03T02:25:07;-0.30;68.70
975;DHT22;6115;49.296;10.602;2023-03-03T02:30:22;-0.40;68.60
975;DHT22;6115;49.296;10.602;2023-03-03T02:40:33;-0.40;69.00
975;DHT22;6115;49.296;10.602;2023-03-03T02:45:41;-0.40;68.90
975;DHT22;6115;49.296;10.602;2023-03-03T02:50:42;-0.40;68.90
975;DHT22;6115;49.296;10.602;2023-03-03T02:55:43;-0.50;68.60
975;DHT22;6115;49.296;10.602;2023-03-03T03:00:43;-0.60;68.90
975;DHT22;6115;49.296;10.602;2023-03-03T03:05:46;-0.60;68.90
975;DHT22;6115;49.296;10.602;2023-03-03T03:10:47;-0.70;68.50
975;DHT22;6115;49.296;10.602;2023-03-03T03:15:48;-0.70;68.60
975;DHT22;6115;49.296;10.602;2023-03-03T03:20:49;-0.60;68.80
975;DHT22;6115;49.296;10.602;2023-03-03T03:25:49;-0.70;68.60
975;DHT22;6115;49.296;10.602;2023-03-03T03:30:50;-0.70;68.70
975;DHT22;6115;49.296;10.602;2023-03-03T03:35:51;-0.70;68.40
975;DHT22;6115;49.296;10.602;2023-03-03T03:40:52;-0.80;68.30
975;DHT22;6115;49.296;10.602;2023-03-03T03:45:53;-0.80;68.50
975;DHT22;6115;49.296;10.602;2023-03-03T03:50:54;-0.80;68.50
975;DHT22;6115;49.296;10.602;2023-03-03T03:55:55;-0.80;68.40
975;DHT22;6115;49.296;10.602;2023-03-03T04:01:04;-0.80;68.50
975;DHT22;6115;49.296;10.602;2023-03-03T04:06:05;-0.80;68.30
975;DHT22;6115;49.296;10.602;2023-03-03T04:11:06;-0.90;68.30
975;DHT22;6115;49.296;10.602;2023-03-03T04:16:06;-1.00;68.00
975;DHT22;6115;49.296;10.602;2023-03-03T04:21:11;-1.00;68.10
975;DHT22;6115;49.296;10.602;2023-03-03T04:26:12;-1.20;68.20
975;DHT22;6115;49.296;10.602;2023-03-03T04:31:13;-1.20;68.40
975;DHT22;6115;49.296;10.602;2023-03-03T04:36:13;-1.20;68.50
975;DHT22;6115;49.296;10.602;2023-03-03T04:41:14;-1.20;68.50
975;DHT22;6115;49.296;10.602;2023-03-03T04:46:15;-1.20;68.70
975;DHT22;6115;49.296;10.602;2023-03-03T04:51:15;-1.20;68.70
975;DHT22;6115;49.296;10.602;2023-03-03T04:56:17;-1.30;68.90
975;DHT22;6115;49.296;10.602;2023-03-03T05:01:18;-1.30;69.00
975;DHT22;6115;49.296;10.602;2023-03-03T05:06:19;-1.30;68.60
975;DHT22;6115;49.296;10.602;2023-03-03T05:11:20;-1.30;68.30
975;DHT22;6115;49.296;10.602;2023-03-03T05:16:23;-1.30;68.20
975;DHT22;6115;49.296;10.602;2023-03-03T05:21:24;-1.40;68.00
975;DHT22;6115;49.296;10.602;2023-03-03T05:26:25;-1.50;67.90
975;DHT22;6115;49.296;10.602;2023-03-03T05:31:25;-1.50;67.90
975;DHT22;6115;49.296;10.602;2023-03-03T05:36:26;-1.50;68.10
975;DHT22;6115;49.296;10.602;2023-03-03T05:41:27;-1.60;67.90
975;DHT22;6115;49.296;10.602;2023-03-03T05:46:27;-1.60;68.20
975;DHT22;6115;49.296;10.602;2023-03-03T05:51:28;-1.70;68.00
975;DHT22;6115;49.296;10.602;2023-03-03T05:56:28;-1.70;68.20
975;DHT22;6115;49.296;10.602;2023-03-03T06:01:29;-1.70;68.40
975;DHT22;6115;49.296;10.602;2023-03-03T06:06:30;-1.70;68.60
975;DHT22;6115;49.296;10.602;2023-03-03T06:11:30;-1.70;68.90
975;DHT22;6115;49.296;10.602;2023-03-03T06:16:31;-1.80;68.80
975;DHT22;6115;49.296;10.602;2023-03-03T06:21:32;-1.90;68.80
975;DHT22;6115;49.296;10.602;2023-03-03T06:26:32;-1.80;68.80
975;DHT22;6115;49.296;10.602;2023-03-03T06:31:33;-1.80;68.80
975;DHT22;6115;49.296;10.602;2023-03-03T06:36:34;-1.80;68.60
975;DHT22;6115;49.296;10.602;2023-03-03T06:41:34;-1.70;68.60
975;DHT22;6115;49.296;10.602;2023-03-03T06:46:35;-1.70;68.50
975;DHT22;6115;49.296;10.602;2023-03-03T06:51:37;-1.70;68.60
975;DHT22;6115;49.296;10.602;2023-03-03T06:56:44;-1.60;69.10
975;DHT22;6115;49.296;10.602;2023-03-03T07:01:49;-1.50;69.10
975;DHT22;6115;49.296;10.602;2023-03-03T07:06:50;-1.40;69.20
975;DHT22;6115;49.296;10.602;2023-03-03T07:11:52;-1.40;69.20
975;DHT22;6115;49.296;10.602;2023-03-03T07:16:59;-1.30;69.30
975;DHT22;6115;49.296;10.602;2023-03-03T07:32:39;-1.00;69.00
975;DHT22;6115;49.296;10.602;2023-03-03T07:37:40;-0.90;68.80
975;DHT22;6115;49.296;10.602;2023-03-03T07:42:41;-0.80;68.60
975;DHT22;6115;49.296;10.602;2023-03-03T07:47:43;-0.70;68.40
975;DHT22;6115;49.296;10.602;2023-03-03T07:52:55;-0.50;68.30
975;DHT22;6115;49.296;10.602;2023-03-03T07:58:05;-0.40;67.90
975;DHT22;6115;49.296;10.602;2023-03-03T08:03:16;-0.30;67.60
975;DHT22;6115;49.296;10.602;2023-03-03T08:08:28;-0.30;67.70
975;DHT22;6115;49.296;10.602;2023-03-03T08:18:36;0.10;67.90
975;DHT22;6115;49.296;10.602;2023-03-03T08:23:37;0.30;67.40
975;DHT22;6115;49.296;10.602;2023-03-03T08:28:38;0.40;67.20
975;DHT22;6115;49.296;10.602;2023-03-03T08:33:39;0.60;67.00
975;DHT22;6115;49.296;10.602;2023-03-03T08:38:40;0.90;66.60
975;DHT22;6115;49.296;10.602;2023-03-03T08:43:40;1.20;66.70
975;DHT22;6115;49.296;10.602;2023-03-03T08:48:41;1.60;65.20
975;DHT22;6115;49.296;10.602;2023-03-03T08:53:41;1.90;64.40
975;DHT22;6115;49.296;10.602;2023-03-03T08:58:42;2.20;62.90
975;DHT22;6115;49.296;10.602;2023-03-03T09:03:47;2.50;62.20
975;DHT22;6115;49.296;10.602;2023-03-03T09:08:47;3.10;61.10
975;DHT22;6115;49.296;10.602;2023-03-03T09:13:48;3.70;58.90
975;DHT22;6115;49.296;10.602;2023-03-03T09:18:52;4.10;58.30
975;DHT22;6115;49.296;10.602;2023-03-03T09:23:59;4.50;56.90
975;DHT22;6115;49.296;10.602;2023-03-03T09:29:16;4.80;56.00
975;DHT22;6115;49.296;10.602;2023-03-03T09:34:23;5.90;54.90
975;DHT22;6115;49.296;10.602;2023-03-03T09:39:26;7.20;51.70
975;DHT22;6115;49.296;10.602;2023-03-03T09:44:59;6.60;50.40
975;DHT22;6115;49.296;10.602;2023-03-03T09:50:17;5.80;51.40
975;DHT22;6115;49.296;10.602;2023-03-03T09:55:26;6.90;51.80
975;DHT22;6115;49.296;10.602;2023-03-03T10:05:55;9.90;44.80
975;DHT22;6115;49.296;10.602;2023-03-03T10:16:18;11.20;39.00
975;DHT22;6115;49.296;10.602;2023-03-03T10:21:45;12.30;37.10
975;DHT22;6115;49.296;10.602;2023-03-03T10:38:00;15.00;33.20
975;DHT22;6115;49.296;10.602;2023-03-03T10:43:51;16.10;30.70
975;DHT22;6115;49.296;10.602;2023-03-03T10:48:46;16.50;29.20
975;DHT22;6115;49.296;10.602;2023-03-03T11:14:42;15.80;29.80
975;DHT22;6115;49.296;10.602;2023-03-03T11:25:26;14.80;30.00
975;DHT22;6115;49.296;10.602;2023-03-03T11:36:09;14.60;31.00
975;DHT22;6115;49.296;10.602;2023-03-03T11:41:34;14.60;30.50
975;DHT22;6115;49.296;10.602;2023-03-03T11:46:42;14.90;30.70
975;DHT22;6115;49.296;10.602;2023-03-03T11:57:21;15.20;30.80
975;DHT22;6115;49.296;10.602;2023-03-03T12:03:07;15.70;29.90
975;DHT22;6115;49.296;10.602;2023-03-03T12:19:24;15.40;30.90
975;DHT22;6115;49.296;10.602;2023-03-03T12:29:40;16.40;29.80
975;DHT22;6115;49.296;10.602;2023-03-03T12:35:02;16.50;29.30
975;DHT22;6115;49.296;10.602;2023-03-03T12:40:25;15.90;29.50
975;DHT22;6115;49.296;10.602;2023-03-03T12:51:03;16.00;30.10
975;DHT22;6115;49.296;10.602;2023-03-03T12:56:12;16.00;29.70
975;DHT22;6115;49.296;10.602;2023-03-03T13:01:27;15.80;28.70
975;DHT22;6115;49.296;10.602;2023-03-03T13:06:39;15.60;29.00
975;DHT22;6115;49.296;10.602;2023-03-03T13:17:29;16.10;28.90
975;DHT22;6115;49.296;10.602;2023-03-03T13:22:38;16.20;29.70
975;DHT22;6115;49.296;10.602;2023-03-03T13:27:43;16.20;28.70
975;DHT22;6115;49.296;10.602;2023-03-03T13:38:01;16.00;29.90
975;DHT22;6115;49.296;10.602;2023-03-03T13:43:16;15.80;30.00
975;DHT22;6115;49.296;10.602;2023-03-03T13:53:54;15.70;30.00
975;DHT22;6115;49.296;10.602;2023-03-03T13:59:47;15.60;30.30
975;DHT22;6115;49.296;10.602;2023-03-03T14:09:51;16.00;29.10
975;DHT22;6115;49.296;10.602;2023-03-03T14:20:40;16.60;27.90
975;DHT22;6115;49.296;10.602;2023-03-03T14:30:56;16.40;26.70
975;DHT22;6115;49.296;10.602;2023-03-03T14:51:45;14.80;27.40
975;DHT22;6115;49.296;10.602;2023-03-03T15:02:40;14.20;29.00
975;DHT22;6115;49.296;10.602;2023-03-03T15:07:41;14.10;29.00
975;DHT22;6115;49.296;10.602;2023-03-03T15:12:42;13.50;28.90
975;DHT22;6115;49.296;10.602;2023-03-03T15:39:15;13.20;29.50
975;DHT22;6115;49.296;10.602;2023-03-03T15:55:36;13.00;29.70
975;DHT22;6115;49.296;10.602;2023-03-03T16:00:59;13.00;29.80
975;DHT22;6115;49.296;10.602;2023-03-03T16:06:07;13.00;29.90
975;DHT22;6115;49.296;10.602;2023-03-03T16:11:27;12.80;30.40
975;DHT22;6115;49.296;10.602;2023-03-03T16:16:45;12.50;30.80
975;DHT22;6115;49.296;10.602;2023-03-03T16:23:02;12.10;31.30
975;DHT22;6115;49.296;10.602;2023-03-03T16:27:38;12.10;31.30
975;DHT22;6115;49.296;10.602;2023-03-03T16:32:52;11.60;30.60
975;DHT22;6115;49.296;10.602;2023-03-03T16:37:59;11.40;30.00
975;DHT22;6115;49.296;10.602;2023-03-03T16:58:46;9.90;32.90
975;DHT22;6115;49.296;10.602;2023-03-03T17:35:41;7.40;39.80
975;DHT22;6115;49.296;10.602;2023-03-03T17:46:18;6.70;41.10
975;DHT22;6115;49.296;10.602;2023-03-03T18:02:26;6.10;43.80
975;DHT22;6115;49.296;10.602;2023-03-03T18:12:57;5.40;45.30
975;DHT22;6115;49.296;10.602;2023-03-03T18:23:33;5.00;46.10
975;DHT22;6115;49.296;10.602;2023-03-03T18:28:49;4.80;46.40
975;DHT22;6115;49.296;10.602;2023-03-03T18:44:43;4.20;48.20
975;DHT22;6115;49.296;10.602;2023-03-03T18:50:13;4.10;48.80
975;DHT22;6115;49.296;10.602;2023-03-03T19:00:23;3.70;50.50
975;DHT22;6115;49.296;10.602;2023-03-03T19:05:35;3.70;51.30
975;DHT22;6115;49.296;10.602;2023-03-03T19:15:45;3.10;52.50
975;DHT22;6115;49.296;10.602;2023-03-03T19:31:44;2.80;53.00
975;DHT22;6115;49.296;10.602;2023-03-03T19:42:30;2.60;54.30
975;DHT22;6115;49.296;10.602;2023-03-03T19:47:43;2.50;55.30
975;DHT22;6115;49.296;10.602;2023-03-03T19:52:59;2.50;55.90
975;DHT22;6115;49.296;10.602;2023-03-03T19:58:11;2.30;55.80
975;DHT22;6115;49.296;10.602;2023-03-03T20:14:04;2.00;57.50
975;DHT22;6115;49.296;10.602;2023-03-03T20:25:00;1.80;57.90
975;DHT22;6115;49.296;10.602;2023-03-03T20:46:22;1.40;58.00
975;DHT22;6115;49.296;10.602;2023-03-03T20:57:00;1.10;57.70
975;DHT22;6115;49.296;10.602;2023-03-03T21:07:24;0.90;58.40
975;DHT22;6115;49.296;10.602;2023-03-03T21:12:29;0.70;59.60
975;DHT22;6115;49.296;10.602;2023-03-03T21:17:31;0.70;59.60
975;DHT22;6115;49.296;10.602;2023-03-03T21:22:32;0.60;59.70
975;DHT22;6115;49.296;10.602;2023-03-03T21:27:34;0.50;59.90
975;DHT22;6115;49.296;10.602;2023-03-03T21:32:43;0.50;60.60
975;DHT22;6115;49.296;10.602;2023-03-03T21:37:52;0.40;60.70
975;DHT22;6115;49.296;10.602;2023-03-03T21:42:55;0.30;61.10
975;DHT22;6115;49.296;10.602;2023-03-03T21:47:57;0.30;61.60
975;DHT22;6115;49.296;10.602;2023-03-03T21:52:57;0.20;62.20
975;DHT22;6115;49.296;10.602;2023-03-03T21:57:58;0.30;63.10
975;DHT22;6115;49.296;10.602;2023-03-03T22:02:58;0.20;63.20
975;DHT22;6115;49.296;10.602;2023-03-03T22:07:59;0.20;63.30
975;DHT22;6115;49.296;10.602;2023-03-03T22:12:59;0.00;63.90
975;DHT22;6115;49.296;10.602;2023-03-03T22:18:00;0.00;63.80
975;DHT22;6115;49.296;10.602;2023-03-03T22:23:01;-0.10;63.50
975;DHT22;6115;49.296;10.602;2023-03-03T22:28:01;-0.20;63.50
975;DHT22;6115;49.296;10.602;2023-03-03T22:33:02;-0.30;63.10
975;DHT22;6115;49.296;10.602;2023-03-03T22:38:02;-0.30;63.50
975;DHT22;6115;49.296;10.602;2023-03-03T22:43:03;-0.40;63.40
975;DHT22;6115;49.296;10.602;2023-03-03T22:48:06;-0.40;63.50
975;DHT22;6115;49.296;10.602;2023-03-03T22:53:06;-0.50;63.30
975;DHT22;6115;49.296;10.602;2023-03-03T22:58:07;-0.50;63.40
975;DHT22;6115;49.296;10.602;2023-03-03T23:03:09;-0.60;63.30
975;DHT22;6115;49.296;10.602;2023-03-03T23:08:12;-0.60;63.70
975;DHT22;6115;49.296;10.602;2023-03-03T23:13:14;-0.60;64.10
975;DHT22;6115;49.296;10.602;2023-03-03T23:18:15;-0.70;63.90
975;DHT22;6115;49.296;10.602;2023-03-03T23:23:15;-0.80;64.00
975;DHT22;6115;49.296;10.602;2023-03-03T23:28:16;-0.90;64.00
975;DHT22;6115;49.296;10.602;2023-03-03T23:33:18;-1.00;63.90
975;DHT22;6115;49.296;10.602;2023-03-03T23:38:19;-1.00;64.10
975;DHT22;6115;49.296;10.602;2023-03-03T23:43:19;-1.10;64.70
975;DHT22;6115;49.296;10.602;2023-03-03T23:48:20;-1.10;64.40
975;DHT22;6115;49.296;10.602;2023-03-03T23:53:20;-1.10;64.70
975;DHT22;6115;49.296;10.602;2023-03-03T23:58:21;-1.30;64.90
